Time;durP1;ratioP1;P1;durP2;ratioP2;P2;SDS_P1;SDS_P2;PMS_P1;PMS_P2;Temp;Humidity;BMP_temperature;BMP_pressure;BME280_temperature;BME280_humidity;BME280_pressure;Samples;Min_cycle;Max_cycle;Signal;HPM_P1;HPM_P2
2021/09/10 00:01:01;;;;;;;;;;;;;;;28.06;41.35;101017.94;5118385;28;920;-39
2021/09/10 00:03:26;;;;;;;;;;;;;;;28.03;41.24;101027.25;5118748;28;802;-49
2021/09/10 00:05:51;;;;;;;;;;;;;;;28.07;40.97;101016.91;5118433;28;767;-48
2021/09/10 00:08:17;;;;;;;;;;;;;;;28.03;41.43;101016.44;5118470;28;863;-39
2021/09/10 00:10:42;;;;;;;;;;;;;;;28.07;40.82;101027.72;5118107;28;1964;-50
2021/09/10 00:13:07;;;;;;;;;;;;;;;28.03;41.35;101021.00;5118545;28;857;-38
2021/09/10 00:15:32;;;;;;;;;;;;;;;28.02;41.23;101022.03;5117847;27;992;-47
2021/09/10 00:17:58;;;;;;;;;;;;;;;28.11;41.01;101027.16;5118110;28;818;-48
2021/09/10 00:20:23;;;;;;;;;;;;;;;28.11;41.02;101023.66;5118408;28;722;-42
2021/09/10 00:22:48;;;;;;;;;;;;;;;28.14;40.90;101025.13;5137488;27;1609;-51
2021/09/10 00:25:14;;;;;;;;;;;;;;;28.14;40.79;101022.44;5138519;27;822;-40
2021/09/10 00:27:39;;;;;;;;;;;;;;;28.10;40.89;101024.66;5138594;27;782;-51
2021/09/10 00:30:05;;;;;;;;;;;;;;;28.05;40.98;101035.16;5123407;27;1976;-52
2021/09/10 00:32:30;;;;;;;;;;;;;;;28.13;40.85;101029.69;5117941;28;703;-49
2021/09/10 00:34:56;;;;;;;;;;;;;;;28.05;41.17;101027.06;5117812;28;989;-45
2021/09/10 00:37:21;;;;;;;;;;;;;;;28.13;40.91;101024.28;5117900;28;841;-50
2021/09/10 00:39:46;;;;;;;;;;;;;;;28.17;40.65;101027.47;5117834;28;810;-44
2021/09/10 00:42:11;;;;;;;;;;;;;;;28.16;40.81;101036.63;5117785;28;893;-49
2021/09/10 00:44:37;;;;;;;;;;;;;;;28.22;40.76;101034.00;5126631;27;963;-40
2021/09/10 00:47:02;;;;;;;;;;;;;;;28.12;41.02;101038.84;5137540;27;803;-41
2021/09/10 00:49:28;;;;;;;;;;;;;;;28.17;41.04;101025.59;5137597;27;1976;-49
2021/09/10 00:51:53;;;;;;;;;;;;;;;28.08;40.88;101030.25;5137292;27;743;-51
2021/09/10 00:54:18;;;;;;;;;;;;;;;28.09;40.90;101023.81;5136535;27;1240;-43
2021/09/10 00:56:43;;;;;;;;;;;;;;;28.12;41.19;101028.03;5138021;27;794;-48
2021/09/10 00:59:09;;;;;;;;;;;;;;;28.16;41.07;101023.09;5115179;28;1033;-40
2021/09/10 01:01:34;;;;;;;;;;;;;;;28.22;40.86;101027.75;5117407;28;897;-48
2021/09/10 01:04:00;;;;;;;;;;;;;;;28.14;40.82;101033.25;5115619;28;1123;-40
2021/09/10 01:06:25;;;;;;;;;;;;;;;28.24;40.61;101034.66;5116300;28;1179;-46
2021/09/10 01:08:51;;;;;;;;;;;;;;;27.98;40.97;101022.38;5116360;28;875;-40
2021/09/10 01:11:16;;;;;;;;;;;;;;;28.19;40.80;101018.16;5117033;28;1898;-40
2021/09/10 01:13:42;;;;;;;;;;;;;;;28.19;41.10;101023.56;5115503;27;938;-53
2021/09/10 01:16:07;;;;;;;;;;;;;;;28.27;41.04;101025.34;5098815;28;676;-41
2021/09/10 01:18:33;;;;;;;;;;;;;;;28.18;40.81;101027.28;5116893;28;834;-51
2021/09/10 01:20:58;;;;;;;;;;;;;;;28.03;41.32;101029.94;5121318;27;1608;-41
2021/09/10 01:23:23;;;;;;;;;;;;;;;27.97;41.46;101033.38;5137948;27;805;-41
2021/09/10 01:25:49;;;;;;;;;;;;;;;28.11;40.96;101034.47;5137371;27;798;-41
2021/09/10 01:28:15;;;;;;;;;;;;;;;28.19;40.92;101044.34;5137168;27;810;-55
2021/09/10 01:30:40;;;;;;;;;;;;;;;28.07;41.21;101042.09;5117741;27;1956;-40
2021/09/10 01:33:07;;;;;;;;;;;;;;;28.09;41.20;101039.22;5116669;28;803;-58
2021/09/10 01:35:32;;;;;;;;;;;;;;;28.07;40.81;101042.09;5116685;28;794;-43
2021/09/10 01:37:57;;;;;;;;;;;;;;;28.04;40.90;101037.06;5116900;28;887;-41
2021/09/10 01:40:23;;;;;;;;;;;;;;;28.01;40.96;101029.28;5116568;28;767;-40
2021/09/10 01:42:48;;;;;;;;;;;;;;;28.20;40.94;101025.25;5116965;28;739;-40
2021/09/10 01:45:13;;;;;;;;;;;;;;;28.03;41.65;101016.44;5132070;27;1008;-42
2021/09/10 01:47:39;;;;;;;;;;;;;;;28.21;41.14;101017.97;5136863;27;1153;-40
2021/09/10 01:50:05;;;;;;;;;;;;;;;28.07;41.39;101006.09;5138030;27;1976;-41
2021/09/10 01:52:30;;;;;;;;;;;;;;;28.15;41.06;101013.28;5137549;27;688;-40
2021/09/10 01:54:56;;;;;;;;;;;;;;;28.19;41.18;101014.59;5137023;27;828;-52
2021/09/10 01:57:21;;;;;;;;;;;;;;;28.07;41.01;101011.50;5137263;27;846;-40
2021/09/10 01:59:46;;;;;;;;;;;;;;;28.05;41.24;101016.25;5124863;27;937;-42
2021/09/10 02:02:12;;;;;;;;;;;;;;;28.04;41.06;101011.88;5116458;28;769;-40
2021/09/10 02:04:37;;;;;;;;;;;;;;;28.05;41.17;101013.53;5116629;28;743;-40
2021/09/10 02:07:03;;;;;;;;;;;;;;;27.98;41.46;101010.72;5116644;28;795;-46
2021/09/10 02:09:28;;;;;;;;;;;;;;;28.04;41.16;101012.72;5116384;28;1980;-40
2021/09/10 02:11:54;;;;;;;;;;;;;;;27.96;41.23;101005.50;5115181;28;1307;-49
2021/09/10 02:14:19;;;;;;;;;;;;;;;28.01;41.35;101004.94;5115867;27;996;-40
2021/09/10 02:16:44;;;;;;;;;;;;;;;28.06;40.88;101001.72;5116676;28;770;-41
2021/09/10 02:19:10;;;;;;;;;;;;;;;28.02;41.17;100997.69;5116589;28;808;-41
2021/09/10 02:21:36;;;;;;;;;;;;;;;27.99;41.30;100988.09;5125690;28;1761;-40
2021/09/10 02:24:01;;;;;;;;;;;;;;;28.06;41.09;100990.91;5136893;27;814;-40
2021/09/10 02:26:26;;;;;;;;;;;;;;;28.08;41.09;100978.84;5137675;27;818;-41
2021/09/10 02:28:52;;;;;;;;;;;;;;;28.03;41.29;100981.28;5131947;27;1009;-40
2021/09/10 02:31:17;;;;;;;;;;;;;;;27.90;41.35;100981.06;5115890;28;1970;-40
2021/09/10 02:33:42;;;;;;;;;;;;;;;27.95;41.26;100975.94;5116516;28;790;-49
2021/09/10 02:36:08;;;;;;;;;;;;;;;27.95;41.22;100978.66;5115279;28;908;-40
2021/09/10 02:38:33;;;;;;;;;;;;;;;28.03;41.00;100983.16;5116384;28;794;-41
2021/09/10 02:40:58;;;;;;;;;;;;;;;27.84;41.49;100982.63;5116104;28;867;-40
2021/09/10 02:43:23;;;;;;;;;;;;;;;27.90;41.22;100984.59;5116069;27;901;-40
2021/09/10 02:45:49;;;;;;;;;;;;;;;28.03;41.07;100980.44;5116477;27;942;-40
2021/09/10 02:48:14;;;;;;;;;;;;;;;28.08;41.10;100980.72;5116996;28;1007;-52
2021/09/10 02:50:39;;;;;;;;;;;;;;;27.99;41.52;100988.91;5119938;28;1967;-40
2021/09/10 02:53:05;;;;;;;;;;;;;;;28.00;41.31;100992.47;5119882;28;804;-41
2021/09/10 02:55:30;;;;;;;;;;;;;;;28.03;41.31;100991.28;5120060;28;812;-40
2021/09/10 02:57:55;;;;;;;;;;;;;;;27.94;41.52;100990.50;5119741;28;743;-45
2021/09/10 03:00:21;;;;;;;;;;;;;;;27.93;41.10;100977.97;5119483;27;954;-40
2021/09/10 03:02:46;;;;;;;;;;;;;;;27.82;41.65;100981.97;5119505;28;820;-40
2021/09/10 03:05:12;;;;;;;;;;;;;;;27.89;41.51;100985.63;5120368;28;803;-40
2021/09/10 03:07:37;;;;;;;;;;;;;;;27.78;41.68;100977.97;5120012;28;771;-51
2021/09/10 03:10:03;;;;;;;;;;;;;;;27.81;41.90;100983.00;5119336;28;1901;-52
2021/09/10 03:12:28;;;;;;;;;;;;;;;27.80;41.99;100973.19;5119785;28;772;-39
2021/09/10 03:14:54;;;;;;;;;;;;;;;27.86;41.52;100965.19;5119071;27;950;-38
2021/09/10 03:17:19;;;;;;;;;;;;;;;27.96;41.23;100956.84;5119646;27;778;-57
2021/09/10 03:19:44;;;;;;;;;;;;;;;27.87;41.41;100958.78;5119598;28;810;-38
2021/09/10 03:22:10;;;;;;;;;;;;;;;27.94;41.62;100963.47;5133469;27;1550;-38
2021/09/10 03:24:35;;;;;;;;;;;;;;;27.96;41.58;100953.31;5139817;27;771;-38
2021/09/10 03:27:00;;;;;;;;;;;;;;;27.79;42.08;100948.06;5140147;27;751;-46
2021/09/10 03:29:25;;;;;;;;;;;;;;;27.93;41.90;100950.94;5130087;27;1978;-39
2021/09/10 03:31:51;;;;;;;;;;;;;;;27.94;42.34;100952.66;5117829;28;914;-40
2021/09/10 03:34:16;;;;;;;;;;;;;;;27.87;41.30;100942.56;5119539;28;859;-48
2021/09/10 03:36:41;;;;;;;;;;;;;;;27.84;39.70;100947.50;5119053;27;763;-40
2021/09/10 03:39:07;;;;;;;;;;;;;;;26.78;36.21;100953.22;5118851;28;810;-45
2021/09/10 03:41:32;;;;;;;;;;;;;;;25.82;36.88;100950.41;5119295;28;779;-44
2021/09/10 03:43:57;;;;;;;;;;;;;;;25.60;36.26;100950.88;5118688;27;1000;-42
2021/09/10 03:46:22;;;;;;;;;;;;;;;25.22;36.48;100948.66;5119018;28;739;-42
2021/09/10 03:48:48;;;;;;;;;;;;;;;24.81;36.99;100952.00;5118739;28;1238;-50
2021/09/10 03:51:13;;;;;;;;;;;;;;;24.65;37.42;100950.97;5118662;28;1984;-46
2021/09/10 03:53:39;;;;;;;;;;;;;;;24.68;37.31;100941.72;5118806;28;735;-44
2021/09/10 03:56:04;;;;;;;;;;;;;;;24.33;37.79;100956.00;5119335;28;736;-43
2021/09/10 03:58:29;;;;;;;;;;;;;;;24.70;37.10;100955.84;5117610;27;1020;-49
2021/09/10 04:00:55;;;;;;;;;;;;;;;24.45;37.53;100961.97;5118065;28;819;-49
2021/09/10 04:03:20;;;;;;;;;;;;;;;24.49;37.35;100967.03;5118751;27;833;-44
2021/09/10 04:05:46;;;;;;;;;;;;;;;24.38;37.45;100957.38;5118944;28;790;-45
2021/09/10 04:08:11;;;;;;;;;;;;;;;24.38;37.55;100954.69;5118284;28;804;-44
2021/09/10 04:10:36;;;;;;;;;;;;;;;24.21;37.73;100960.81;5141305;27;1921;-46
2021/09/10 04:13:02;;;;;;;;;;;;;;;24.30;37.68;100966.22;5157384;27;786;-59
2021/09/10 04:15:28;;;;;;;;;;;;;;;24.02;38.01;100959.16;5122973;27;948;-45
2021/09/10 04:17:54;;;;;;;;;;;;;;;23.84;38.48;100960.00;5118660;28;789;-43
2021/09/10 04:20:19;;;;;;;;;;;;;;;23.82;38.84;100959.31;5118397;28;739;-44
2021/09/10 04:22:45;;;;;;;;;;;;;;;23.79;38.84;100964.19;5137338;27;1570;-46
2021/09/10 04:25:10;;;;;;;;;;;;;;;23.66;38.92;100960.03;5139039;27;778;-44
2021/09/10 04:27:35;;;;;;;;;;;;;;;23.80;38.52;100963.16;5138581;27;739;-55
2021/09/10 04:30:02;;;;;;;;;;;;;;;23.91;38.25;100962.91;5123982;27;1902;-45
2021/09/10 04:32:28;;;;;;;;;;;;;;;23.66;39.06;100968.09;5118344;28;830;-43
2021/09/10 04:34:53;;;;;;;;;;;;;;;23.53;39.21;100971.16;5116753;28;1124;-47
2021/09/10 04:37:18;;;;;;;;;;;;;;;23.48;39.17;100968.09;5117932;28;834;-47
2021/09/10 04:39:44;;;;;;;;;;;;;;;23.38;39.19;100970.81;5117880;28;798;-48
2021/09/10 04:42:09;;;;;;;;;;;;;;;23.62;38.53;100961.34;5117995;28;822;-47
2021/09/10 04:44:34;;;;;;;;;;;;;;;23.38;38.75;100965.44;5117658;27;1000;-43
2021/09/10 04:47:00;;;;;;;;;;;;;;;23.26;38.96;100970.19;5117750;28;775;-45
2021/09/10 04:49:25;;;;;;;;;;;;;;;23.26;38.81;100967.50;5117814;28;1918;-42
2021/09/10 04:51:50;;;;;;;;;;;;;;;23.35;38.65;100977.34;5117414;28;763;-44
2021/09/10 04:54:16;;;;;;;;;;;;;;;23.26;38.44;100974.69;5117522;28;806;-42
2021/09/10 04:56:41;;;;;;;;;;;;;;;23.24;38.44;100978.38;5116318;28;803;-46
2021/09/10 04:59:07;;;;;;;;;;;;;;;23.18;38.49;100968.25;5117113;27;969;-43
2021/09/10 05:01:32;;;;;;;;;;;;;;;23.24;38.14;100975.69;5116923;28;820;-50
2021/09/10 05:03:58;;;;;;;;;;;;;;;23.36;37.72;100983.53;5117798;28;798;-54
2021/09/10 05:06:23;;;;;;;;;;;;;;;23.18;37.98;100979.00;5117203;28;814;-51
2021/09/10 05:08:48;;;;;;;;;;;;;;;23.18;38.04;100975.47;5117334;28;759;-56
2021/09/10 05:11:14;;;;;;;;;;;;;;;22.97;38.41;100976.59;5116532;28;1897;-42
2021/09/10 05:13:39;;;;;;;;;;;;;;;23.02;38.37;100976.13;5116754;27;953;-45
2021/09/10 05:16:04;;;;;;;;;;;;;;;23.22;38.03;100983.06;5117658;28;794;-44
2021/09/10 05:18:29;;;;;;;;;;;;;;;22.87;38.70;100980.13;5117414;28;743;-52
2021/09/10 05:20:55;;;;;;;;;;;;;;;22.48;39.46;100977.59;5120434;27;1582;-43
2021/09/10 05:23:20;;;;;;;;;;;;;;;23.07;38.27;100974.66;5137904;27;858;-43
2021/09/10 05:25:45;;;;;;;;;;;;;;;23.03;38.42;100973.28;5137914;27;779;-49
2021/09/10 05:28:11;;;;;;;;;;;;;;;22.84;38.52;100980.44;5137286;27;795;-41
2021/09/10 05:30:36;;;;;;;;;;;;;;;23.31;38.04;100984.00;5117608;27;1898;-44
2021/09/10 05:33:01;;;;;;;;;;;;;;;23.04;38.31;100979.50;5117220;28;775;-53
2021/09/10 05:35:26;;;;;;;;;;;;;;;23.19;37.57;100979.84;5116824;28;889;-44
2021/09/10 05:37:52;;;;;;;;;;;;;;;23.02;38.33;100985.03;5116703;28;870;-45
2021/09/10 05:40:17;;;;;;;;;;;;;;;23.46;37.76;100988.88;5117115;28;787;-45
2021/09/10 05:42:43;;;;;;;;;;;;;;;23.11;37.99;100981.44;5117183;28;778;-46
2021/09/10 05:45:08;;;;;;;;;;;;;;;23.51;37.41;100983.03;5115845;27;1000;-45
2021/09/10 05:47:33;;;;;;;;;;;;;;;23.10;37.85;100981.59;5116992;28;727;-45
2021/09/10 05:49:59;;;;;;;;;;;;;;;23.39;37.29;100975.16;5116718;28;1945;-47
2021/09/10 05:52:24;;;;;;;;;;;;;;;23.26;37.76;100972.00;5116598;28;803;-55
2021/09/10 05:54:49;;;;;;;;;;;;;;;23.16;38.00;100982.81;5116935;28;802;-58
2021/09/10 05:57:15;;;;;;;;;;;;;;;23.38;37.23;100978.00;5116766;28;842;-47
2021/09/10 05:59:40;;;;;;;;;;;;;;;23.13;37.55;100989.34;5115939;27;1020;-46
2021/09/10 06:02:06;;;;;;;;;;;;;;;23.24;37.63;100980.22;5116280;28;834;-48
2021/09/10 06:04:31;;;;;;;;;;;;;;;23.29;37.50;100977.09;5116684;28;812;-46
2021/09/10 06:06:56;;;;;;;;;;;;;;;23.58;37.43;100990.34;5114572;28;798;-46
2021/09/10 06:09:21;;;;;;;;;;;;;;;23.62;37.38;100992.72;5116527;28;1968;-47
2021/09/10 06:11:47;;;;;;;;;;;;;;;24.14;37.43;100991.97;5116292;28;767;-41
2021/09/10 06:14:12;;;;;;;;;;;;;;;24.89;37.02;100989.72;5116336;27;954;-45
2021/09/10 06:16:37;;;;;;;;;;;;;;;25.21;37.07;100992.72;5116950;28;799;-45
2021/09/10 06:19:03;;;;;;;;;;;;;;;25.53;36.91;100996.50;5116434;28;763;-46
2021/09/10 06:21:28;;;;;;;;;;;;;;;25.71;36.66;101003.59;5124285;27;1632;-50
2021/09/10 06:23:54;;;;;;;;;;;;;;;25.88;36.35;100993.69;5140937;27;822;-44
2021/09/10 06:26:22;;;;;;;;;;;;;;;25.80;36.39;100994.53;5141023;27;771;-45
2021/09/10 06:28:48;;;;;;;;;;;;;;;25.37;36.90;100997.31;5136122;27;1275;-43
2021/09/10 06:31:13;;;;;;;;;;;;;;;25.46;36.77;100991.94;5120418;28;1894;-43
2021/09/10 06:33:38;;;;;;;;;;;;;;;25.39;36.96;101003.34;5120339;28;850;-43
2021/09/10 06:36:04;;;;;;;;;;;;;;;25.28;36.58;101007.22;5120247;28;839;-43
2021/09/10 06:38:29;;;;;;;;;;;;;;;25.48;36.95;101006.06;5120857;28;818;-47
2021/09/10 06:40:54;;;;;;;;;;;;;;;25.47;36.74;101007.94;5120147;28;827;-46
2021/09/10 06:43:19;;;;;;;;;;;;;;;25.53;36.28;101014.50;5120052;28;780;-46
2021/09/10 06:45:46;;;;;;;;;;;;;;;25.39;36.98;101021.38;5120107;27;1001;-44
2021/09/10 06:48:11;;;;;;;;;;;;;;;25.55;36.90;101017.88;5119788;28;1223;-41
2021/09/10 06:50:37;;;;;;;;;;;;;;;25.93;37.04;101014.72;5118289;28;1914;-38
2021/09/10 06:53:02;;;;;;;;;;;;;;;26.32;36.69;101015.03;5118449;28;965;-42
2021/09/10 06:55:27;;;;;;;;;;;;;;;26.52;36.20;101015.53;5120421;28;798;-44
2021/09/10 06:57:53;;;;;;;;;;;;;;;26.62;36.11;101021.59;5120239;28;724;-44
2021/09/10 07:00:18;;;;;;;;;;;;;;;26.58;35.98;101019.38;5119444;27;969;-44
2021/09/10 07:02:43;;;;;;;;;;;;;;;26.67;35.44;101028.31;5119472;28;803;-44
2021/09/10 07:05:09;;;;;;;;;;;;;;;26.67;35.48;101021.06;5120093;28;732;-44
2021/09/10 07:07:34;;;;;;;;;;;;;;;26.74;35.37;101019.34;5119783;27;803;-43
2021/09/10 07:09:59;;;;;;;;;;;;;;;26.80;35.26;101025.06;5119823;28;1901;-43
2021/09/10 07:12:25;;;;;;;;;;;;;;;26.77;35.54;101018.16;5119542;28;779;-42
2021/09/10 07:14:50;;;;;;;;;;;;;;;26.80;35.53;101031.31;5118622;27;996;-47
2021/09/10 07:17:15;;;;;;;;;;;;;;;26.82;35.49;101026.59;5119795;28;767;-45
2021/09/10 07:19:41;;;;;;;;;;;;;;;26.80;35.81;101031.31;5119215;27;882;-42
2021/09/10 07:22:06;;;;;;;;;;;;;;;26.85;35.66;101034.34;5133115;27;1601;-44
2021/09/10 07:24:32;;;;;;;;;;;;;;;26.87;35.66;101036.84;5140328;27;766;-43
2021/09/10 07:26:57;;;;;;;;;;;;;;;26.95;35.58;101033.28;5139582;27;795;-45
2021/09/10 07:29:23;;;;;;;;;;;;;;;26.97;35.60;101031.25;5130704;27;1897;-41
2021/09/10 07:31:49;;;;;;;;;;;;;;;27.00;35.38;101036.28;5119470;28;763;-43
2021/09/10 07:34:14;;;;;;;;;;;;;;;26.96;35.27;101033.09;5118205;28;743;-41
2021/09/10 07:36:39;;;;;;;;;;;;;;;27.06;35.56;101029.38;5119277;28;826;-44
2021/09/10 07:39:05;;;;;;;;;;;;;;;27.04;35.06;101034.97;5119258;28;799;-46
2021/09/10 07:41:30;;;;;;;;;;;;;;;27.10;35.04;101041.50;5118820;28;739;-40
2021/09/10 07:43:55;;;;;;;;;;;;;;;27.08;35.05;101038.13;5121057;27;883;-42
2021/09/10 07:46:21;;;;;;;;;;;;;;;27.18;34.83;101037.91;5119275;28;948;-44
2021/09/10 07:48:46;;;;;;;;;;;;;;;27.14;35.07;101040.97;5118832;28;1112;-42
2021/09/10 07:51:11;;;;;;;;;;;;;;;27.26;34.64;101041.44;5141133;27;1917;-40
2021/09/10 07:53:37;;;;;;;;;;;;;;;27.21;35.29;101038.41;5158535;27;762;-44
2021/09/10 07:56:02;;;;;;;;;;;;;;;27.19;35.17;101045.03;5160183;27;778;-40
2021/09/10 07:58:27;;;;;;;;;;;;;;;27.16;35.23;101046.19;5155836;27;1232;-41
2021/09/10 08:00:53;;;;;;;;;;;;;;;27.25;34.90;101038.91;5118607;28;866;-41
2021/09/10 08:03:18;;;;;;;;;;;;;;;27.21;35.39;101035.72;5118655;28;735;-41
2021/09/10 08:05:45;;;;;;;;;;;;;;;27.22;35.28;101039.25;5118336;27;842;-42
2021/09/10 08:08:14;;;;;;;;;;;;;;;27.29;35.19;101034.84;5118444;28;819;-38
2021/09/10 08:10:39;;;;;;;;;;;;;;;27.35;35.42;101034.13;5118491;28;1962;-46
2021/09/10 08:13:04;;;;;;;;;;;;;;;27.33;35.58;101040.72;5115324;27;1172;-46
2021/09/10 08:15:33;;;;;;;;;;;;;;;27.38;35.78;101038.31;5127828;27;833;-41
2021/09/10 08:18:07;;;;;;;;;;;;;;;27.43;35.77;101043.19;5125048;27;1021;-41
2021/09/10 08:20:35;;;;;;;;;;;;;;;27.41;35.68;101037.13;5137289;27;1616;-44
2021/09/10 08:23:02;;;;;;;;;;;;;;;27.47;35.51;101031.88;5117664;28;814;-41
2021/09/10 08:25:27;;;;;;;;;;;;;;;27.48;35.45;101029.97;5117886;28;786;-41
2021/09/10 08:27:58;;;;;;;;;;;;;;;27.48;35.75;101038.94;5117016;28;827;-41
2021/09/10 08:30:23;;;;;;;;;;;;;;;27.57;36.20;101033.47;5117098;27;1961;-43
2021/09/10 08:32:49;;;;;;;;;;;;;;;27.48;36.04;101036.25;5116634;28;810;-43
2021/09/10 08:35:15;;;;;;;;;;;;;;;27.60;37.44;101035.81;5117708;28;815;-42
2021/09/10 08:37:40;;;;;;;;;;;;;;;27.56;36.38;101029.94;5117915;28;779;-42
2021/09/10 08:40:11;;;;;;;;;;;;;;;27.62;36.97;101025.69;5117488;28;819;-43
2021/09/10 08:42:36;;;;;;;;;;;;;;;27.59;37.43;101031.44;5116919;28;779;-42
2021/09/10 08:45:03;;;;;;;;;;;;;;;27.63;37.03;101027.34;5116414;27;914;-42
2021/09/10 08:47:32;;;;;;;;;;;;;;;27.66;37.16;101032.41;5116829;28;865;-42
2021/09/10 08:50:00;;;;;;;;;;;;;;;27.62;36.97;101025.69;5115195;28;1913;-40
2021/09/10 08:52:26;;;;;;;;;;;;;;;27.34;35.23;101021.63;5117241;28;906;-37
2021/09/10 08:54:51;;;;;;;;;;;;;;;27.36;35.27;101018.78;5117299;28;767;-39
2021/09/10 08:57:16;;;;;;;;;;;;;;;27.36;35.27;101019.59;5116972;28;806;-38
2021/09/10 08:59:42;;;;;;;;;;;;;;;27.63;34.91;101012.00;5116858;27;973;-37
2021/09/10 09:02:07;;;;;;;;;;;;;;;27.72;35.15;101011.97;5117248;28;827;-40
2021/09/10 09:04:33;;;;;;;;;;;;;;;27.64;35.34;101015.53;5116292;28;858;-37
2021/09/10 09:07:00;;;;;;;;;;;;;;;27.78;35.63;101010.41;5117390;28;889;-44
2021/09/10 09:09:47;;;;;;;;;;;;;;;27.85;35.79;101012.19;5116825;28;1913;-44
2021/09/10 09:12:21;;;;;;;;;;;;;;;28.14;36.08;101007.06;5116912;28;811;-41
2021/09/10 09:15:03;;;;;;;;;;;;;;;28.22;36.07;101003.41;5116277;27;1009;-39
2021/09/10 09:17:35;;;;;;;;;;;;;;;28.34;35.89;100995.72;5115489;28;1273;-40
2021/09/10 09:20:15;;;;;;;;;;;;;;;28.41;36.00;100993.13;5116776;28;803;-39
2021/09/10 09:22:53;;;;;;;;;;;;;;;28.46;35.68;101002.34;5135831;27;1620;-40
2021/09/10 09:25:18;;;;;;;;;;;;;;;28.50;36.01;101005.50;5144221;27;862;-40
2021/09/10 09:27:44;;;;;;;;;;;;;;;28.58;35.94;101001.88;5146808;27;806;-41
2021/09/10 09:30:09;;;;;;;;;;;;;;;28.63;35.49;100995.91;5138350;27;2034;-43
2021/09/10 09:32:48;;;;;;;;;;;;;;;28.79;36.24;100994.88;5136768;27;780;-41
2021/09/10 09:35:13;;;;;;;;;;;;;;;28.72;36.76;100992.91;5151761;27;1173;-40
2021/09/10 09:37:38;;;;;;;;;;;;;;;28.70;35.18;100994.13;5157594;27;995;-40
2021/09/10 09:40:04;;;;;;;;;;;;;;;28.75;35.51;100988.97;5155239;27;1403;-40
2021/09/10 09:42:31;;;;;;;;;;;;;;;28.76;35.62;100987.94;5137057;27;815;-44
2021/09/10 09:45:48;;;;;;;;;;;;;;;28.86;35.57;100982.25;5133560;27;958;-41
2021/09/10 09:48:10;;;;;;;;;;;;;;;28.77;35.60;100986.09;5133851;27;1719;-44
2021/09/10 09:50:39;;;;;;;;;;;;;;;28.68;35.37;100982.63;5135960;27;1921;-42
2021/09/10 09:53:04;;;;;;;;;;;;;;;28.78;35.16;100982.38;5136548;27;794;-41
2021/09/10 09:55:30;;;;;;;;;;;;;;;28.92;35.46;100981.50;5135840;27;791;-40
2021/09/10 09:57:55;;;;;;;;;;;;;;;29.17;35.16;100973.06;5136105;27;855;-41
2021/09/10 10:00:24;;;;;;;;;;;;;;;29.03;34.94;100966.66;5119322;27;1019;-41
2021/09/10 10:02:50;;;;;;;;;;;;;;;29.05;35.02;100958.31;5115573;28;771;-39
2021/09/10 10:05:15;;;;;;;;;;;;;;;29.14;34.41;100948.22;5115471;28;842;-40
2021/09/10 10:07:51;;;;;;;;;;;;;;;29.26;32.57;100968.34;5115046;28;815;-40
2021/09/10 10:10:18;;;;;;;;;;;;;;;29.38;31.97;100955.13;5114468;28;1914;-42
2021/09/10 10:12:46;;;;;;;;;;;;;;;29.42;31.02;100953.72;5116478;28;747;-42
2021/09/10 10:15:18;;;;;;;;;;;;;;;23.81;40.78;100944.19;5115121;27;1061;-43
2021/09/10 10:17:43;;;;;;;;;;;;;;;23.92;36.47;100950.34;5114450;28;1421;-40
2021/09/10 10:20:11;;;;;;;;;;;;;;;24.42;39.21;100945.31;5115965;28;782;-39
2021/09/10 10:22:37;;;;;;;;;;;;;;;24.45;40.45;100953.91;5133104;28;1578;-39
2021/09/10 10:25:05;;;;;;;;;;;;;;;24.43;41.14;100958.59;5136109;27;802;-41
2021/09/10 10:27:40;;;;;;;;;;;;;;;24.13;41.87;100949.97;5136236;27;774;-40
2021/09/10 10:30:05;;;;;;;;;;;;;;;24.04;42.38;100946.38;5121504;27;1898;-40
2021/09/10 10:32:34;;;;;;;;;;;;;;;25.39;40.19;100951.38;5116024;28;838;-39
2021/09/10 10:35:11;;;;;;;;;;;;;;;26.06;37.08;100956.78;5115839;28;794;-39
2021/09/10 10:37:42;;;;;;;;;;;;;;;24.08;40.28;100952.28;5115539;28;874;-42
2021/09/10 10:40:27;;;;;;;;;;;;;;;23.42;41.83;100942.69;5115188;28;826;-39
2021/09/10 10:42:52;;;;;;;;;;;;;;;23.27;42.95;100937.00;5115671;28;839;-40
2021/09/10 10:45:41;;;;;;;;;;;;;;;23.24;43.20;100939.97;5115895;27;1009;-40
2021/09/10 10:48:24;;;;;;;;;;;;;;;23.17;43.45;100937.03;5115196;28;1436;-38
2021/09/10 10:50:50;;;;;;;;;;;;;;;25.06;40.03;100941.34;5115199;28;1905;-40
2021/09/10 10:53:15;;;;;;;;;;;;;;;24.18;40.91;100950.38;5115557;28;771;-40
2021/09/10 10:55:40;;;;;;;;;;;;;;;23.45;42.57;100947.78;5115326;28;850;-40
2021/09/10 10:58:22;;;;;;;;;;;;;;;23.16;43.58;100931.81;5114022;28;772;-38
2021/09/10 11:00:53;;;;;;;;;;;;;;;23.15;43.97;100938.19;5115217;27;1008;-41
2021/09/10 11:03:19;;;;;;;;;;;;;;;25.15;39.76;100943.09;5115403;28;767;-41
2021/09/10 11:05:44;;;;;;;;;;;;;;;24.23;39.65;100940.97;5115391;28;763;-40
2021/09/10 11:08:10;;;;;;;;;;;;;;;23.84;38.84;100926.91;5114987;28;882;-39
2021/09/10 11:10:35;;;;;;;;;;;;;;;24.88;37.98;100936.06;5118222;28;1976;-43
2021/09/10 11:13:00;;;;;;;;;;;;;;;25.06;34.88;100931.44;5118127;28;779;-41
2021/09/10 11:15:26;;;;;;;;;;;;;;;23.65;38.41;100938.69;5118927;27;945;-38
2021/09/10 11:17:53;;;;;;;;;;;;;;;23.21;40.74;100938.44;5118572;28;735;-39
2021/09/10 11:20:39;;;;;;;;;;;;;;;23.05;41.71;100930.22;5118835;28;822;-41
2021/09/10 11:23:05;;;;;;;;;;;;;;;23.18;41.34;100930.69;5118976;28;1720;-39
2021/09/10 11:25:31;;;;;;;;;;;;;;;24.05;40.96;100928.41;5119190;28;803;-40
2021/09/10 11:27:56;;;;;;;;;;;;;;;25.61;37.14;100922.91;5118532;28;770;-40
2021/09/10 11:30:22;;;;;;;;;;;;;;;24.80;37.09;100924.28;5118358;27;1905;-39
2021/09/10 11:32:47;;;;;;;;;;;;;;;23.06;39.94;100913.97;5118319;28;857;-40
2021/09/10 11:35:19;;;;;;;;;;;;;;;22.43;41.26;100912.84;5117883;28;786;-40
2021/09/10 11:38:04;;;;;;;;;;;;;;;22.45;41.38;100914.41;5118016;28;795;-39
2021/09/10 11:40:30;;;;;;;;;;;;;;;22.32;42.00;100920.06;5117870;28;2163;-40
2021/09/10 11:43:01;;;;;;;;;;;;;;;22.36;42.19;100912.59;5116685;28;816;-40
2021/09/10 11:45:26;;;;;;;;;;;;;;;22.53;42.13;100907.44;5118042;27;950;-38
2021/09/10 11:47:51;;;;;;;;;;;;;;;22.71;41.49;100913.75;5116815;28;1074;-39
2021/09/10 11:50:16;;;;;;;;;;;;;;;24.27;39.59;100905.56;5134919;27;1909;-42
2021/09/10 11:52:42;;;;;;;;;;;;;;;23.63;38.74;100911.16;5144997;27;1469;-42
2021/09/10 11:55:14;;;;;;;;;;;;;;;22.81;40.99;100907.47;5138256;27;863;-40
2021/09/10 11:57:40;;;;;;;;;;;;;;;22.56;41.69;100907.13;5138290;27;832;-38
2021/09/10 12:00:06;;;;;;;;;;;;;;;24.14;39.93;100897.06;5126556;27;864;-46
2021/09/10 12:02:33;;;;;;;;;;;;;;;25.34;36.95;100907.94;5118003;28;754;-56
2021/09/10 12:05:00;;;;;;;;;;;;;;;25.85;35.19;100904.25;5116955;28;823;-43
2021/09/10 12:07:31;;;;;;;;;;;;;;;26.17;34.48;100906.00;5118209;28;818;-42
2021/09/10 12:09:57;;;;;;;;;;;;;;;24.14;38.36;100902.44;5119597;27;1965;-43
2021/09/10 12:12:23;;;;;;;;;;;;;;;25.48;35.75;100901.88;5143992;27;1386;-42
2021/09/10 12:15:02;;;;;;;;;;;;;;;26.06;34.71;100892.91;5128272;27;857;-41
2021/09/10 12:17:36;;;;;;;;;;;;;;;24.08;38.96;100896.69;5136335;27;1415;-45
2021/09/10 12:20:11;;;;;;;;;;;;;;;25.64;35.54;100902.94;5155471;27;828;-45
2021/09/10 12:22:37;;;;;;;;;;;;;;;26.03;35.07;100901.34;5141068;27;1564;-45
2021/09/10 12:25:21;;;;;;;;;;;;;;;23.87;38.69;100902.44;5138044;27;739;-44
2021/09/10 12:27:46;;;;;;;;;;;;;;;25.28;37.32;100906.75;5137859;27;724;-43
2021/09/10 12:30:13;;;;;;;;;;;;;;;26.07;36.07;100900.00;5136539;27;1977;-44
2021/09/10 12:32:38;;;;;;;;;;;;;;;26.52;34.75;100907.63;5138310;27;760;-43
2021/09/10 12:35:03;;;;;;;;;;;;;;;24.82;37.33;100910.66;5137932;27;836;-43
2021/09/10 12:37:29;;;;;;;;;;;;;;;24.52;40.51;100908.38;5137573;27;775;-42
2021/09/10 12:39:54;;;;;;;;;;;;;;;25.88;36.82;100907.44;5137560;27;747;-43
2021/09/10 12:42:20;;;;;;;;;;;;;;;25.35;36.45;100905.06;5138486;27;763;-42
2021/09/10 12:44:45;;;;;;;;;;;;;;;23.90;41.16;100899.44;5125550;27;949;-39
2021/09/10 12:47:10;;;;;;;;;;;;;;;25.46;37.49;100911.16;5117000;28;731;-43
2021/09/10 12:49:36;;;;;;;;;;;;;;;25.73;37.45;100906.44;5116700;28;1914;-42